createdAt,value
2023-11-18T00:01:01.403Z,22.60
2023-11-18T00:03:27.914Z,20.70
2023-11-18T00:05:54.604Z,20.10
2023-11-18T00:08:21.384Z,21.90
2023-11-18T00:10:47.949Z,21.90
2023-11-18T00:13:14.825Z,19.90
2023-11-18T00:15:43.306Z,20.70
2023-11-18T00:18:10.063Z,24.10
2023-11-18T00:20:36.623Z,20.70
2023-11-18T00:23:05.237Z,23.30
2023-11-18T00:25:33.482Z,20.70
2023-11-18T00:28:00.192Z,21.70
2023-11-18T00:30:28.555Z,21.30
2023-11-18T00:32:55.179Z,19.60
2023-11-18T00:35:21.741Z,20.60
2023-11-18T00:37:48.531Z,18.70
2023-11-18T00:40:18.346Z,20.30
2023-11-18T00:42:45.902Z,22.20
2023-11-18T00:45:15.689Z,20.40
2023-11-18T00:47:42.414Z,18.70
2023-11-18T00:50:09.199Z,18.40
2023-11-18T00:52:38.839Z,19.40
2023-11-18T00:55:07.350Z,18.90
2023-11-18T00:57:34.019Z,20.30
2023-11-18T01:00:00.512Z,21.80
2023-11-18T01:02:28.245Z,20.80
2023-11-18T01:04:55.933Z,19.30
2023-11-18T01:07:22.589Z,19.40
2023-11-18T01:09:49.383Z,18.10
2023-11-18T01:12:15.959Z,20.90
2023-11-18T01:14:42.439Z,20.20
2023-11-18T01:17:10.423Z,19.60
2023-11-18T01:19:37.130Z,19.70
2023-11-18T01:22:06.133Z,20.40
2023-11-18T01:24:33.736Z,18.70
2023-11-18T01:27:00.291Z,18.60
2023-11-18T01:29:27.320Z,19.20
2023-11-18T01:31:55.977Z,19.70
2023-11-18T01:34:22.856Z,18.60
2023-11-18T01:36:50.371Z,18.40
2023-11-18T01:39:21.300Z,18.70
2023-11-18T01:41:49.979Z,18.40
2023-11-18T01:44:17.951Z,18.70
2023-11-18T01:46:45.532Z,18.90
2023-11-18T01:49:14.255Z,19.40
2023-11-18T01:51:42.286Z,19.90
2023-11-18T01:54:08.745Z,19.60
2023-11-18T01:56:35.137Z,20.00
2023-11-18T01:59:03.862Z,18.60
2023-11-18T02:01:31.091Z,18.50
2023-11-18T02:03:57.674Z,19.10
2023-11-18T02:06:24.153Z,18.20
2023-11-18T02:08:50.609Z,18.90
2023-11-18T02:11:31.794Z,21.30
2023-11-18T02:13:59.502Z,18.90
2023-11-18T02:16:28.021Z,19.50
2023-11-18T02:18:54.812Z,17.50
2023-11-18T02:21:21.827Z,19.40
2023-11-18T02:23:48.796Z,18.30
2023-11-18T02:26:24.447Z,19.20
2023-11-18T02:28:52.863Z,18.30
2023-11-18T02:31:22.968Z,20.40
2023-11-18T02:34:21.321Z,19.70
2023-11-18T02:36:49.422Z,20.30
2023-11-18T02:39:23.032Z,19.70
2023-11-18T02:41:52.277Z,18.70
2023-11-18T02:44:20.516Z,18.70
2023-11-18T02:46:47.177Z,19.90
2023-11-18T02:49:13.736Z,19.80
2023-11-18T02:51:40.524Z,20.10
2023-11-18T02:54:10.870Z,17.70
2023-11-18T02:56:38.073Z,18.50
2023-11-18T02:59:05.953Z,18.10
2023-11-18T03:01:35.693Z,19.90
2023-11-18T03:04:02.767Z,18.90
2023-11-18T03:06:29.710Z,18.90
2023-11-18T03:08:56.175Z,20.00
2023-11-18T03:11:23.118Z,21.20
2023-11-18T03:13:49.830Z,19.50
2023-11-18T03:16:17.452Z,19.60
2023-11-18T03:18:44.108Z,19.90
2023-11-18T03:21:13.849Z,20.50
2023-11-18T03:23:41.189Z,17.70
2023-11-18T03:26:08.678Z,19.70
2023-11-18T03:28:36.988Z,20.20
2023-11-18T03:31:06.557Z,20.20
2023-11-18T03:33:33.332Z,19.20
2023-11-18T03:35:59.966Z,18.70
2023-11-18T03:38:28.068Z,20.70
2023-11-18T03:40:54.661Z,23.00
2023-11-18T03:43:21.125Z,20.40
2023-11-18T03:45:48.262Z,21.40
2023-11-18T03:48:14.935Z,20.80
2023-11-18T03:50:41.591Z,18.10
2023-11-18T03:53:08.143Z,19.40
2023-11-18T03:55:34.737Z,20.00
2023-11-18T03:58:01.645Z,19.80
2023-11-18T04:00:29.952Z,21.00
2023-11-18T04:02:59.789Z,20.60
2023-11-18T04:05:26.233Z,20.90
2023-11-18T04:07:52.766Z,19.60
2023-11-18T04:10:20.432Z,18.80
2023-11-18T04:12:48.317Z,19.80
2023-11-18T04:15:18.668Z,18.80
2023-11-18T04:17:45.394Z,18.60
2023-11-18T04:20:12.182Z,21.40
2023-11-18T04:22:41.698Z,22.30
2023-11-18T04:25:09.552Z,26.80
2023-11-18T04:27:36.507Z,22.50
2023-11-18T04:30:04.389Z,21.90
2023-11-18T04:32:34.484Z,19.50
2023-11-18T04:35:07.317Z,21.30
2023-11-18T04:37:34.841Z,18.30
2023-11-18T04:40:06.522Z,27.80
2023-11-18T04:42:33.671Z,27.60
2023-11-18T04:45:00.265Z,23.60
2023-11-18T04:47:27.477Z,20.10
2023-11-18T04:49:54.385Z,20.20
2023-11-18T04:52:21.061Z,20.70
2023-11-18T04:54:50.186Z,17.40
2023-11-18T04:57:16.660Z,19.00
2023-11-18T04:59:44.045Z,18.00
2023-11-18T05:02:10.823Z,20.80
2023-11-18T05:04:37.576Z,20.90
2023-11-18T05:07:04.620Z,19.50
2023-11-18T05:09:33.339Z,21.00
2023-11-18T05:12:01.161Z,19.90
2023-11-18T05:14:29.193Z,19.00
2023-11-18T05:16:56.633Z,17.90
2023-11-18T05:19:23.140Z,19.20
2023-11-18T05:21:50.014Z,18.70
2023-11-18T05:24:16.704Z,26.00
2023-11-18T05:26:43.120Z,28.80
2023-11-18T05:29:10.508Z,19.40
2023-11-18T05:31:37.689Z,26.20
2023-11-18T05:34:05.212Z,29.60
2023-11-18T05:36:37.586Z,43.50
2023-11-18T05:39:05.490Z,30.50
2023-11-18T05:41:32.533Z,36.90
2023-11-18T05:43:59.148Z,27.00
2023-11-18T05:46:28.637Z,21.10
2023-11-18T05:48:56.108Z,25.10
2023-11-18T05:51:23.774Z,22.30
2023-11-18T05:53:51.348Z,21.20
2023-11-18T05:56:19.002Z,18.50
2023-11-18T05:58:45.939Z,19.80
2023-11-18T06:01:12.992Z,20.50
2023-11-18T06:03:40.743Z,21.10
2023-11-18T06:06:12.713Z,20.80
2023-11-18T06:08:41.459Z,19.60
2023-11-18T06:11:14.989Z,20.70
2023-11-18T06:13:50.103Z,19.10
2023-11-18T06:16:22.277Z,20.30
2023-11-18T06:18:50.357Z,19.50
2023-11-18T06:21:20.831Z,19.60
2023-11-18T06:23:47.977Z,20.10
2023-11-18T06:26:15.179Z,18.70
2023-11-18T06:28:42.914Z,17.40
2023-11-18T06:31:09.659Z,18.20
2023-11-18T06:33:45.510Z,22.80
2023-11-18T06:36:15.231Z,20.60
2023-11-18T06:38:42.103Z,21.40
2023-11-18T06:41:17.099Z,17.50
2023-11-18T06:44:07.247Z,17.20
2023-11-18T06:46:35.108Z,17.50
2023-11-18T06:49:06.959Z,15.80
2023-11-18T06:54:08.695Z,17.30
2023-11-18T06:56:39.814Z,17.80
2023-11-18T06:59:10.596Z,23.30
2023-11-18T07:01:37.422Z,20.60
2023-11-18T07:04:08.948Z,19.30
2023-11-18T07:06:38.566Z,34.10
2023-11-18T07:09:17.993Z,31.10
2023-11-18T07:11:45.108Z,26.10
2023-11-18T07:14:11.868Z,20.60
2023-11-18T07:16:39.994Z,21.60
2023-11-18T07:19:07.010Z,19.80
2023-11-18T07:21:34.467Z,18.50
2023-11-18T07:24:02.719Z,19.90
2023-11-18T07:26:29.384Z,21.50
2023-11-18T07:28:56.635Z,17.60
2023-11-18T07:31:23.418Z,18.70
2023-11-18T07:33:50.810Z,27.20
2023-11-18T07:36:17.652Z,23.90
2023-11-18T07:38:44.759Z,19.00
2023-11-18T07:41:23.858Z,23.90
2023-11-18T07:43:53.229Z,25.20
2023-11-18T07:46:22.552Z,23.00
2023-11-18T07:48:50.215Z,24.00
2023-11-18T07:51:16.747Z,22.10
2023-11-18T07:53:43.260Z,28.60
2023-11-18T07:56:12.622Z,20.00
2023-11-18T07:58:39.221Z,24.40
2023-11-18T08:01:09.277Z,24.30
2023-11-18T08:03:37.870Z,19.50
2023-11-18T08:06:07.485Z,16.90
2023-11-18T08:08:38.374Z,16.30
2023-11-18T08:11:10.986Z,15.40
2023-11-18T08:13:37.683Z,17.80
2023-11-18T08:16:09.324Z,23.30
2023-11-18T08:18:38.308Z,14.30
2023-11-18T08:21:07.173Z,13.70
2023-11-18T08:23:33.789Z,13.00
2023-11-18T08:26:00.362Z,14.70
2023-11-18T08:28:27.044Z,12.30
2023-11-18T08:30:53.706Z,10.90
2023-11-18T08:33:21.594Z,12.70
2023-11-18T08:35:49.199Z,13.20
2023-11-18T08:38:15.811Z,12.10
2023-11-18T08:40:43.337Z,15.10
2023-11-18T08:43:10.043Z,15.90
2023-11-18T08:45:37.790Z,14.50
2023-11-18T08:48:07.952Z,15.10
2023-11-18T08:50:35.844Z,13.90
2023-11-18T08:53:04.732Z,14.20
2023-11-18T08:55:51.392Z,11.20
2023-11-18T08:58:22.387Z,14.00
2023-11-18T09:00:54.698Z,14.30
2023-11-18T09:03:25.865Z,15.90
2023-11-18T09:06:06.647Z,12.90
2023-11-18T09:08:38.797Z,13.30
2023-11-18T09:11:07.174Z,15.30
2023-11-18T09:13:35.293Z,12.60
2023-11-18T09:16:04.085Z,11.70
2023-11-18T09:18:32.866Z,12.80
2023-11-18T09:21:01.483Z,11.80
2023-11-18T09:23:29.305Z,14.20
2023-11-18T09:25:56.041Z,13.30
2023-11-18T09:28:24.833Z,17.10
2023-11-18T09:30:53.924Z,15.60
2023-11-18T09:33:29.327Z,18.00
2023-11-18T09:35:59.219Z,15.70
2023-11-18T09:38:28.251Z,12.90
2023-11-18T09:40:54.780Z,13.80
2023-11-18T09:43:22.524Z,13.70
2023-11-18T09:45:58.027Z,11.90
2023-11-18T09:48:27.513Z,15.20
2023-11-18T09:50:54.288Z,14.10
2023-11-18T09:53:21.083Z,12.00
2023-11-18T09:55:55.846Z,17.80
2023-11-18T09:58:24.581Z,14.20
2023-11-18T10:00:51.447Z,12.60
2023-11-18T10:03:18.094Z,13.60
2023-11-18T10:05:44.618Z,13.70
2023-11-18T10:08:11.617Z,12.40
2023-11-18T10:10:38.928Z,14.90
2023-11-18T10:13:19.234Z,14.70
2023-11-18T10:15:51.415Z,11.40
2023-11-18T10:18:25.999Z,12.30
2023-11-18T10:20:52.769Z,13.30
2023-11-18T10:23:21.290Z,16.00
2023-11-18T10:25:53.215Z,13.50
2023-11-18T10:28:27.926Z,14.40
2023-11-18T10:30:58.201Z,13.90
2023-11-18T10:33:31.019Z,12.50
2023-11-18T10:35:58.242Z,12.40
2023-11-18T10:38:25.771Z,12.80
2023-11-18T10:40:56.028Z,15.10
2023-11-18T10:43:24.856Z,12.30
2023-11-18T10:46:14.010Z,12.10
2023-11-18T10:48:47.701Z,12.70
2023-11-18T10:51:21.073Z,14.80
2023-11-18T10:53:58.828Z,13.60
2023-11-18T10:56:30.203Z,15.90
2023-11-18T11:01:29.237Z,9.30
2023-11-18T11:03:56.287Z,11.90
2023-11-18T11:06:26.548Z,11.60
2023-11-18T11:08:53.610Z,10.40
2023-11-18T11:11:22.269Z,11.00
2023-11-18T11:13:58.818Z,13.80
2023-11-18T11:16:34.956Z,10.90
2023-11-18T11:19:08.738Z,12.50
2023-11-18T11:21:47.995Z,9.50
2023-11-18T11:24:49.853Z,9.10
2023-11-18T11:27:36.085Z,10.20
2023-11-18T11:30:10.827Z,10.20
2023-11-18T11:32:46.437Z,10.20
2023-11-18T11:35:19.314Z,11.20
2023-11-18T11:37:47.672Z,9.20
2023-11-18T11:40:22.053Z,9.20
2023-11-18T11:42:55.493Z,9.10
2023-11-18T11:45:28.667Z,9.10
2023-11-18T11:48:17.400Z,9.90
2023-11-18T11:50:54.609Z,9.20
2023-11-18T11:53:23.695Z,9.20
2023-11-18T11:55:53.752Z,7.60
2023-11-18T11:58:28.332Z,9.60
2023-11-18T12:00:55.007Z,10.30
2023-11-18T12:03:24.788Z,9.70
2023-11-18T12:05:55.776Z,11.60
2023-11-18T12:08:23.155Z,8.30
2023-11-18T12:10:54.599Z,9.50
2023-11-18T12:13:27.027Z,9.70
2023-11-18T12:15:57.518Z,10.00
2023-11-18T12:18:24.795Z,13.20
2023-11-18T12:21:03.114Z,9.20
2023-11-18T12:23:31.000Z,8.30
2023-11-18T12:26:03.383Z,7.50
2023-11-18T12:28:34.872Z,8.10
2023-11-18T12:31:17.713Z,9.70
2023-11-18T12:34:09.279Z,9.70
2023-11-18T12:36:57.559Z,10.70
2023-11-18T12:39:53.249Z,12.50
2023-11-18T12:42:54.514Z,11.70
2023-11-18T12:45:46.172Z,10.90
2023-11-18T12:48:15.336Z,10.00
2023-11-18T12:50:44.063Z,13.90
2023-11-18T12:53:11.272Z,11.60
2023-11-18T12:55:37.888Z,10.90
2023-11-18T12:58:06.014Z,8.70
2023-11-18T13:00:34.630Z,9.00
2023-11-18T13:03:01.694Z,20.40
2023-11-18T13:05:30.347Z,9.30
2023-11-18T13:07:58.779Z,8.40
2023-11-18T13:10:27.422Z,7.30
2023-11-18T13:12:54.537Z,7.40
2023-11-18T13:15:25.004Z,8.20
2023-11-18T13:18:01.408Z,10.70
2023-11-18T13:20:28.080Z,9.40
2023-11-18T13:22:57.586Z,9.20
2023-11-18T13:25:25.813Z,10.40
2023-11-18T13:27:52.764Z,11.10
2023-11-18T13:30:21.233Z,10.90
2023-11-18T13:32:49.874Z,9.90
2023-11-18T13:35:19.507Z,9.00
2023-11-18T13:37:49.716Z,9.60
2023-11-18T13:40:19.795Z,9.20
2023-11-18T13:42:46.705Z,10.80
2023-11-18T13:45:27.211Z,12.20
2023-11-18T13:48:00.912Z,11.00
2023-11-18T13:50:27.662Z,11.40
2023-11-18T13:52:54.122Z,10.60
2023-11-18T13:55:27.937Z,11.00
2023-11-18T13:57:56.345Z,11.00
2023-11-18T14:00:23.721Z,11.30
2023-11-18T14:02:51.873Z,11.20
2023-11-18T14:05:19.795Z,9.60
2023-11-18T14:07:48.970Z,11.80
2023-11-18T14:10:17.843Z,12.30
2023-11-18T14:13:06.010Z,13.40
2023-11-18T14:15:36.668Z,9.30
2023-11-18T14:18:04.245Z,9.90
2023-11-18T14:20:31.721Z,8.90
2023-11-18T14:23:02.378Z,10.20
2023-11-18T14:25:29.506Z,10.10
2023-11-18T14:27:56.740Z,10.20
2023-11-18T14:30:25.935Z,9.50
2023-11-18T14:32:52.974Z,10.80
2023-11-18T14:35:20.912Z,9.90
2023-11-18T14:37:47.523Z,11.30
2023-11-18T14:40:14.570Z,10.20
2023-11-18T14:42:45.753Z,8.60
2023-11-18T14:45:13.510Z,9.20
2023-11-18T14:47:40.726Z,10.80
2023-11-18T14:50:17.335Z,11.00
2023-11-18T14:52:45.966Z,9.70
2023-11-18T14:55:12.759Z,12.70
2023-11-18T14:57:42.411Z,9.10
2023-11-18T15:00:22.346Z,9.40
2023-11-18T15:02:50.597Z,9.70
2023-11-18T15:05:21.420Z,9.10
2023-11-18T15:07:49.595Z,12.50
2023-11-18T15:10:20.555Z,11.70
2023-11-18T15:12:53.841Z,11.50
2023-11-18T15:15:22.222Z,11.80
2023-11-18T15:17:52.239Z,14.60
2023-11-18T15:20:19.060Z,14.20
2023-11-18T15:22:46.519Z,13.70
2023-11-18T15:25:13.464Z,13.40
2023-11-18T15:27:44.823Z,12.60
2023-11-18T15:30:12.003Z,11.10
2023-11-18T15:32:42.231Z,11.90
2023-11-18T15:35:09.635Z,13.70
2023-11-18T15:37:42.780Z,18.50
2023-11-18T15:40:11.089Z,12.90
2023-11-18T15:42:38.838Z,18.90
2023-11-18T15:45:13.404Z,14.60
2023-11-18T15:47:43.052Z,24.40
2023-11-18T15:50:16.577Z,12.90
2023-11-18T15:52:43.640Z,15.90
2023-11-18T15:55:10.626Z,15.00
2023-11-18T15:57:38.703Z,16.50
2023-11-18T16:00:07.039Z,13.30
2023-11-18T16:02:33.846Z,18.90
2023-11-18T16:05:00.768Z,14.40
2023-11-18T16:07:27.407Z,12.30
2023-11-18T16:09:55.108Z,10.40
2023-11-18T16:12:21.639Z,15.60
2023-11-18T16:14:48.770Z,11.20
2023-11-18T16:17:16.120Z,12.60
2023-11-18T16:19:43.254Z,10.80
2023-11-18T16:22:10.393Z,10.20
2023-11-18T16:24:37.274Z,12.00
2023-11-18T16:27:04.695Z,10.50
2023-11-18T16:29:31.334Z,12.20
2023-11-18T16:31:57.895Z,11.60
2023-11-18T16:34:25.914Z,11.20
2023-11-18T16:36:56.969Z,10.70
2023-11-18T16:39:23.648Z,11.50
2023-11-18T16:41:50.423Z,10.10
2023-11-18T16:44:16.993Z,7.70
2023-11-18T16:46:45.135Z,9.60
2023-11-18T16:49:16.579Z,8.50
2023-11-18T16:54:09.494Z,8.00
2023-11-18T16:56:36.398Z,10.60
2023-11-18T16:59:03.705Z,8.10
2023-11-18T17:01:30.763Z,10.80
2023-11-18T17:03:58.530Z,8.80
2023-11-18T17:06:25.190Z,8.20
2023-11-18T17:08:53.158Z,8.70
2023-11-18T17:11:19.778Z,7.50
2023-11-18T17:13:46.904Z,8.90
2023-11-18T17:16:17.306Z,9.10
2023-11-18T17:18:44.376Z,9.20
2023-11-18T17:21:11.230Z,9.60
2023-11-18T17:23:44.086Z,9.00
2023-11-18T17:26:10.704Z,8.80
2023-11-18T17:28:37.315Z,10.70
2023-11-18T17:31:04.322Z,9.50
2023-11-18T17:33:31.848Z,9.60
2023-11-18T17:36:02.370Z,10.20
2023-11-18T17:38:29.074Z,10.80
2023-11-18T17:40:56.120Z,9.60
2023-11-18T17:43:23.404Z,7.10
2023-11-18T17:45:49.936Z,9.30
2023-11-18T17:48:16.549Z,8.60
2023-11-18T17:50:43.304Z,8.40
2023-11-18T17:53:10.356Z,9.50
2023-11-18T17:55:37.056Z,8.70
2023-11-18T17:58:03.727Z,11.60
2023-11-18T18:00:30.440Z,11.40
2023-11-18T18:02:57.189Z,9.70
2023-11-18T18:05:23.915Z,10.80
2023-11-18T18:07:50.650Z,7.20
2023-11-18T18:10:17.268Z,8.70
2023-11-18T18:12:46.966Z,8.90
2023-11-18T18:15:14.420Z,10.90
2023-11-18T18:17:41.516Z,9.20
2023-11-18T18:20:09.605Z,9.70
2023-11-18T18:22:39.186Z,9.80
2023-11-18T18:25:06.694Z,8.60
2023-11-18T18:27:34.055Z,10.60
2023-11-18T18:30:01.202Z,10.80
2023-11-18T18:32:28.026Z,14.00
2023-11-18T18:34:54.672Z,12.60
2023-11-18T18:37:22.705Z,9.10
2023-11-18T18:39:51.565Z,9.90
2023-11-18T18:42:19.232Z,9.90
2023-11-18T18:44:45.833Z,9.20
2023-11-18T18:47:12.798Z,9.10
2023-11-18T18:49:39.730Z,9.50
2023-11-18T18:52:06.382Z,9.80
2023-11-18T18:54:33.398Z,11.50
2023-11-18T18:57:00.580Z,9.20
2023-11-18T18:59:27.237Z,9.50
2023-11-18T19:01:54.805Z,10.00
2023-11-18T19:04:21.845Z,11.40
2023-11-18T19:06:49.884Z,8.90
2023-11-18T19:09:18.742Z,12.50
2023-11-18T19:11:46.103Z,11.70
2023-11-18T19:14:12.639Z,10.40
2023-11-18T19:16:41.107Z,9.60
2023-11-18T19:19:10.553Z,9.80
2023-11-18T19:21:37.200Z,10.10
2023-11-18T19:24:04.168Z,9.80
2023-11-18T19:26:36.348Z,9.20
2023-11-18T19:29:03.691Z,8.90
2023-11-18T19:31:30.473Z,10.20
2023-11-18T19:33:58.826Z,11.30
2023-11-18T19:36:25.782Z,8.70
2023-11-18T19:38:52.341Z,9.00
2023-11-18T19:41:19.108Z,9.50
2023-11-18T19:43:45.760Z,10.20
2023-11-18T19:46:12.953Z,9.80
2023-11-18T19:48:39.546Z,10.20
2023-11-18T19:51:08.435Z,9.10
2023-11-18T19:53:35.145Z,9.00
2023-11-18T19:56:01.888Z,8.60
2023-11-18T19:58:28.621Z,9.70
2023-11-18T20:00:55.830Z,8.70
2023-11-18T20:03:22.799Z,9.60
2023-11-18T20:05:50.070Z,9.90
2023-11-18T20:08:19.265Z,9.30
2023-11-18T20:10:47.497Z,8.80
2023-11-18T20:13:14.064Z,8.60
2023-11-18T20:15:42.292Z,8.80
2023-11-18T20:18:11.845Z,7.70
2023-11-18T20:20:38.656Z,10.10
2023-11-18T20:23:05.315Z,9.50
2023-11-18T20:25:32.048Z,9.40
2023-11-18T20:27:58.908Z,9.60
2023-11-18T20:30:25.798Z,9.20
2023-11-18T20:32:52.469Z,10.10
2023-11-18T20:35:19.340Z,9.70
2023-11-18T20:37:48.118Z,8.50
2023-11-18T20:40:16.986Z,8.20
2023-11-18T20:42:43.697Z,8.70
2023-11-18T20:45:14.074Z,8.50
2023-11-18T20:47:40.912Z,8.60
2023-11-18T20:50:07.856Z,8.50
2023-11-18T20:52:34.640Z,8.40
2023-11-18T20:55:01.981Z,9.00
2023-11-18T20:57:28.699Z,8.10
2023-11-18T20:59:55.319Z,8.50
2023-11-18T21:02:22.728Z,9.80
2023-11-18T21:04:49.524Z,8.70
2023-11-18T21:07:16.999Z,7.90
2023-11-18T21:09:43.563Z,9.10
2023-11-18T21:12:18.044Z,9.00
2023-11-18T21:14:49.397Z,8.10
2023-11-18T21:17:18.222Z,9.40
2023-11-18T21:19:45.052Z,9.10
2023-11-18T21:22:13.550Z,6.90
2023-11-18T21:24:39.969Z,8.60
2023-11-18T21:27:07.472Z,7.60
2023-11-18T21:29:34.387Z,8.20
2023-11-18T21:32:03.445Z,8.60
2023-11-18T21:34:30.535Z,8.70
2023-11-18T21:36:57.170Z,7.70
2023-11-18T21:39:23.710Z,8.80
2023-11-18T21:41:50.243Z,8.60
2023-11-18T21:44:18.606Z,7.80
2023-11-18T21:46:45.763Z,8.40
2023-11-18T21:49:12.250Z,8.60
2023-11-18T21:51:38.787Z,8.80
2023-11-18T21:54:05.459Z,8.80
2023-11-18T21:56:35.274Z,7.90
2023-11-18T21:59:03.581Z,8.50
2023-11-18T22:01:30.898Z,8.10
2023-11-18T22:03:57.508Z,7.90
2023-11-18T22:06:24.854Z,7.40
2023-11-18T22:08:51.788Z,8.60
2023-11-18T22:11:19.621Z,9.10
2023-11-18T22:13:48.070Z,8.80
2023-11-18T22:16:15.715Z,8.40
2023-11-18T22:18:42.219Z,8.60
2023-11-18T22:21:08.735Z,8.60
2023-11-18T22:23:38.549Z,9.80
2023-11-18T22:26:07.332Z,7.90
2023-11-18T22:28:33.943Z,8.50
2023-11-18T22:31:00.454Z,8.00
2023-11-18T22:33:27.015Z,9.20
2023-11-18T22:35:54.232Z,13.40
2023-11-18T22:38:24.233Z,13.60
2023-11-18T22:40:51.615Z,10.10
2023-11-18T22:43:19.950Z,10.40
2023-11-18T22:45:49.170Z,10.40
2023-11-18T22:48:15.773Z,8.30
2023-11-18T22:50:42.363Z,7.80
2023-11-18T22:53:10.549Z,8.80
2023-11-18T22:55:38.711Z,8.70
2023-11-18T22:58:05.445Z,7.50
2023-11-18T23:00:31.881Z,7.30
2023-11-18T23:02:59.047Z,7.40
2023-11-18T23:05:28.489Z,7.80
2023-11-18T23:07:58.231Z,8.60
2023-11-18T23:10:25.438Z,9.50
2023-11-18T23:12:53.091Z,7.50
2023-11-18T23:15:22.275Z,8.70
2023-11-18T23:17:49.928Z,7.80
2023-11-18T23:20:16.591Z,8.70
2023-11-18T23:22:43.128Z,8.60
2023-11-18T23:25:09.724Z,8.20
2023-11-18T23:27:37.179Z,9.10
2023-11-18T23:30:06.669Z,8.40
2023-11-18T23:32:36.290Z,10.60
2023-11-18T23:35:06.138Z,10.80
2023-11-18T23:37:32.752Z,8.50
2023-11-18T23:39:59.283Z,7.70
2023-11-18T23:42:25.680Z,7.90
2023-11-18T23:44:52.637Z,7.40
2023-11-18T23:47:20.347Z,8.30
2023-11-18T23:52:23.433Z,8.70
2023-11-18T23:54:50.793Z,10.50
2023-11-18T23:57:17.917Z,8.70
2023-11-18T23:59:44.427Z,7.60
